Time;durP1;ratioP1;P1;durP2;ratioP2;P2;SDS_P1;SDS_P2;PMS_P1;PMS_P2;Temp;Humidity;BMP_temperature;BMP_pressure;BME280_temperature;BME280_humidity;BME280_pressure;Samples;Min_cycle;Max_cycle;Signal;HPM_P1;HPM_P2
2022/04/11 00:00:00;;;;;;;7.20;2.97;;;;;;;;;;10517786;28;20052;-74
2022/04/11 00:05:05;;;;;;;8.40;3.10;;;;;;;;;;10517318;28;20146;-72
2022/04/11 00:10:09;;;;;;;6.77;3.10;;;;;;;;;;10500278;28;20028;-74
2022/04/11 00:15:12;;;;;;;2.63;1.55;;;;;;;;;;10517770;28;20040;-73
2022/04/11 00:20:17;;;;;;;9.00;2.97;;;;;;;;;;10495685;28;20043;-72
2022/04/11 00:25:20;;;;;;;6.40;3.17;;;;;;;;;;10494240;28;20095;-71
2022/04/11 00:30:23;;;;;;;6.83;3.07;;;;;;;;;;10511750;28;20032;-72
2022/04/11 00:35:27;;;;;;;8.73;3.13;;;;;;;;;;10497660;28;20438;-72
2022/04/11 00:40:30;;;;;;;3.33;1.05;;;;;;;;;;10493015;28;20476;-71
2022/04/11 00:45:34;;;;;;;2.00;0.70;;;;;;;;;;10512777;28;20036;-72
2022/04/11 00:50:38;;;;;;;9.50;1.97;;;;;;;;;;10514939;28;20044;-72
2022/04/11 00:55:42;;;;;;;5.28;2.30;;;;;;;;;;10495825;28;20298;-72
2022/04/11 01:00:44;;;;;;;4.80;0.95;;;;;;;;;;10511391;28;20108;-71
2022/04/11 01:05:48;;;;;;;3.23;2.00;;;;;;;;;;10493944;28;20106;-71
2022/04/11 01:10:51;;;;;;;;;;;;;;;;;;10490175;28;20036;-72
2022/04/11 01:15:55;;;;;;;5.90;2.30;;;;;;;;;;10492903;28;19990;-71
2022/04/11 01:20:59;;;;;;;6.47;2.50;;;;;;;;;;10494162;28;20071;-71
2022/04/11 01:26:06;;;;;;;4.37;2.23;;;;;;;;;;10514307;28;20120;-71
2022/04/11 01:31:09;;;;;;;4.93;2.83;;;;;;;;;;10509777;28;20079;-72
2022/04/11 01:36:11;;;;;;;6.47;2.60;;;;;;;;;;10508985;28;20286;-71
2022/04/11 01:41:16;;;;;;;5.20;2.40;;;;;;;;;;10493361;28;20048;-72
2022/04/11 01:46:18;;;;;;;2.33;0.93;;;;;;;;;;10510159;28;20397;-73
2022/04/11 01:51:21;;;;;;;4.30;2.10;;;;;;;;;;10509599;28;20479;-73
2022/04/11 01:56:25;;;;;;;4.27;2.37;;;;;;;;;;10505957;28;20048;-71
2022/04/11 02:01:28;;;;;;;1.77;1.63;;;;;;;;;;10493285;28;20068;-71
2022/04/11 02:06:31;;;;;;;0.93;0.67;;;;;;;;;;10496374;28;20032;-72
2022/04/11 02:11:35;;;;;;;1.30;0.77;;;;;;;;;;10509295;28;20063;-74
2022/04/11 02:16:38;;;;;;;2.72;1.38;;;;;;;;;;10494333;28;20044;-72
2022/04/11 02:21:41;;;;;;;2.57;1.83;;;;;;;;;;10508061;28;20044;-72
2022/04/11 02:26:45;;;;;;;3.23;1.43;;;;;;;;;;10511186;28;20040;-71
2022/04/11 02:31:48;;;;;;;3.17;1.13;;;;;;;;;;10493476;28;20558;-70
2022/04/11 02:36:50;;;;;;;0.27;0.10;;;;;;;;;;10507158;28;20354;-72
2022/04/11 02:41:55;;;;;;;1.40;0.90;;;;;;;;;;10506030;28;20050;-72
2022/04/11 02:46:58;;;;;;;1.73;1.07;;;;;;;;;;10487876;28;20060;-72
2022/04/11 02:52:01;;;;;;;1.37;1.20;;;;;;;;;;10508317;28;20083;-71
2022/04/11 02:57:06;;;;;;;0.73;0.70;;;;;;;;;;10510410;28;20036;-71
2022/04/11 03:02:08;;;;;;;3.30;1.50;;;;;;;;;;10506022;28;20036;-70
2022/04/11 03:07:11;;;;;;;3.10;1.63;;;;;;;;;;10515613;28;20048;-72
2022/04/11 03:12:17;;;;;;;3.45;1.88;;;;;;;;;;10499173;28;20154;-72
2022/04/11 03:17:20;;;;;;;3.10;1.60;;;;;;;;;;10516898;28;20514;-70
2022/04/11 03:22:23;;;;;;;1.47;1.03;;;;;;;;;;10516989;28;20045;-72
2022/04/11 03:27:28;;;;;;;1.40;0.85;;;;;;;;;;10523834;28;20040;-71
2022/04/11 03:32:30;;;;;;;3.55;1.60;;;;;;;;;;10514537;22;20090;-74
2022/04/11 03:37:33;;;;;;;4.37;2.00;;;;;;;;;;10468250;28;20050;-74
2022/04/11 03:42:38;;;;;;;0.52;0.47;;;;;;;;;;10456593;28;20036;-74
2022/04/11 03:47:41;;;;;;;4.57;2.00;;;;;;;;;;10451954;28;20095;-75
2022/04/11 03:52:44;;;;;;;2.93;2.20;;;;;;;;;;10457824;28;20037;-75
2022/04/11 03:57:48;;;;;;;3.27;1.33;;;;;;;;;;10430391;28;20494;-76
2022/04/11 04:02:51;;;;;;;0.90;0.40;;;;;;;;;;10451096;28;20061;-76
2022/04/11 04:07:54;;;;;;;3.27;1.60;;;;;;;;;;10457945;28;20036;-74
2022/04/11 04:12:59;;;;;;;2.27;1.60;;;;;;;;;;10452154;28;20095;-76
2022/04/11 04:18:02;;;;;;;2.83;1.80;;;;;;;;;;10448263;28;20554;-77
2022/04/11 04:23:04;;;;;;;3.10;1.80;;;;;;;;;;10455752;28;20094;-75
2022/04/11 04:28:09;;;;;;;5.53;2.10;;;;;;;;;;10440428;28;20089;-76
2022/04/11 04:33:12;;;;;;;;;;;;;;;;;;10454174;28;20076;-75
2022/04/11 04:38:16;;;;;;;6.32;1.40;;;;;;;;;;10437431;28;20379;-75
2022/04/11 04:43:20;;;;;;;2.77;1.50;;;;;;;;;;10430467;28;20482;-75
2022/04/11 04:48:22;;;;;;;2.70;1.30;;;;;;;;;;10453567;28;20465;-75
2022/04/11 04:53:25;;;;;;;2.80;1.50;;;;;;;;;;10453303;28;20052;-75
2022/04/11 04:58:32;;;;;;;3.80;1.47;;;;;;;;;;10456943;28;20029;-76
2022/04/11 05:03:34;;;;;;;;;;;;;;;;;;10446440;28;20060;-76
2022/04/11 05:08:37;;;;;;;2.20;1.20;;;;;;;;;;10443295;28;19929;-76
2022/04/11 05:13:42;;;;;;;2.90;1.53;;;;;;;;;;10420570;28;20456;-75
2022/04/11 05:18:45;;;;;;;2.40;1.17;;;;;;;;;;10455668;28;20116;-76
2022/04/11 05:23:48;;;;;;;9.37;1.83;;;;;;;;;;10448488;28;20133;-75
2022/04/11 05:28:52;;;;;;;2.27;1.00;;;;;;;;;;10429883;28;20033;-75
2022/04/11 05:33:55;;;;;;;2.43;1.17;;;;;;;;;;10455014;28;20060;-75
2022/04/11 05:38:58;;;;;;;3.47;1.40;;;;;;;;;;10429579;28;20501;-76
2022/04/11 05:44:03;;;;;;;1.13;0.83;;;;;;;;;;10433007;28;20049;-75
2022/04/11 05:49:05;;;;;;;;;;;;;;;;;;10443184;28;20090;-77
2022/04/11 05:54:08;;;;;;;1.33;0.83;;;;;;;;;;10445602;28;19939;-76
2022/04/11 05:59:12;;;;;;;3.03;1.57;;;;;;;;;;10425135;28;20105;-75
2022/04/11 06:04:15;;;;;;;1.30;1.13;;;;;;;;;;10463168;22;20497;-71
2022/04/11 06:09:17;;;;;;;4.40;2.27;;;;;;;;;;10437741;28;20048;-72
2022/04/11 06:14:21;;;;;;;1.40;1.23;;;;;;;;;;10394850;28;20038;-71
2022/04/11 06:19:24;;;;;;;4.32;1.27;;;;;;;;;;10462836;22;20059;-73
2022/04/11 06:24:27;;;;;;;3.93;2.00;;;;;;;;;;10430953;28;20044;-74
2022/04/11 06:29:32;;;;;;;2.53;1.63;;;;;;;;;;10436679;28;20599;-75
2022/04/11 06:34:35;;;;;;;3.73;1.47;;;;;;;;;;10422607;28;20067;-75
2022/04/11 06:39:38;;;;;;;4.83;2.60;;;;;;;;;;10443886;28;20091;-74
2022/04/11 06:44:42;;;;;;;0.83;0.80;;;;;;;;;;10430064;28;20034;-75
2022/04/11 06:49:45;;;;;;;3.13;1.52;;;;;;;;;;10429083;28;20037;-76
2022/04/11 06:54:47;;;;;;;2.57;1.53;;;;;;;;;;10425105;28;20148;-75
2022/04/11 06:59:52;;;;;;;2.83;1.63;;;;;;;;;;10434415;28;20038;-75
2022/04/11 07:04:54;;;;;;;;;;;;;;;;;;10461849;28;20067;-75
2022/04/11 07:09:58;;;;;;;2.92;1.70;;;;;;;;;;10441123;28;19964;-75
2022/04/11 07:15:03;;;;;;;3.03;1.67;;;;;;;;;;10433624;28;20127;-76
2022/04/11 07:20:06;;;;;;;2.92;2.17;;;;;;;;;;10437208;28;20033;-75
2022/04/11 07:25:10;;;;;;;2.78;2.20;;;;;;;;;;10441764;28;20038;-74
2022/04/11 07:30:15;;;;;;;2.20;1.60;;;;;;;;;;10445863;28;20164;-74
2022/04/11 07:35:17;;;;;;;4.65;2.58;;;;;;;;;;10443181;28;20042;-74
2022/04/11 07:40:20;;;;;;;3.77;2.30;;;;;;;;;;10434788;28;20046;-77
2022/04/11 07:45:25;;;;;;;2.45;1.90;;;;;;;;;;10423707;28;20305;-74
2022/04/11 07:50:29;;;;;;;4.20;2.50;;;;;;;;;;10449828;28;20042;-75
2022/04/11 07:55:33;;;;;;;3.35;2.17;;;;;;;;;;10421536;28;20045;-76
2022/04/11 08:00:37;;;;;;;4.50;2.60;;;;;;;;;;10434728;28;20045;-76
2022/04/11 08:05:40;;;;;;;5.50;2.47;;;;;;;;;;10429290;28;20068;-76
2022/04/11 08:10:43;;;;;;;;;;;;;;;;;;10409578;28;20117;-75
2022/04/11 08:15:47;;;;;;;4.70;2.53;;;;;;;;;;10425653;28;19928;-75
2022/04/11 08:20:50;;;;;;;3.10;2.58;;;;;;;;;;10414196;28;20112;-76
2022/04/11 08:25:53;;;;;;;5.05;2.78;;;;;;;;;;10413232;28;20052;-76
2022/04/11 08:30:58;;;;;;;5.68;2.83;;;;;;;;;;10414704;28;20183;-77
2022/04/11 08:36:01;;;;;;;4.28;2.45;;;;;;;;;;10411296;28;20045;-76
2022/04/11 08:41:04;;;;;;;3.72;2.70;;;;;;;;;;10410898;28;20049;-76
2022/04/11 08:46:08;;;;;;;5.40;3.40;;;;;;;;;;10411263;28;20033;-77
2022/04/11 08:51:11;;;;;;;6.68;3.30;;;;;;;;;;10407954;28;20107;-76
2022/04/11 08:56:14;;;;;;;5.20;2.70;;;;;;;;;;10423382;28;20493;-76
2022/04/11 09:01:19;;;;;;;5.75;3.40;;;;;;;;;;10414933;28;20119;-76
2022/04/11 09:06:24;;;;;;;4.10;2.78;;;;;;;;;;10410086;28;20037;-76
2022/04/11 09:11:31;;;;;;;4.63;2.80;;;;;;;;;;10406292;28;20072;-77
2022/04/11 09:16:44;;;;;;;5.88;2.80;;;;;;;;;;10412087;28;20029;-75
2022/04/11 09:21:48;;;;;;;4.00;3.00;;;;;;;;;;10398582;28;20140;-75
2022/04/11 09:26:54;;;;;;;4.40;2.63;;;;;;;;;;10405639;28;20072;-76
2022/04/11 09:32:03;;;;;;;3.33;2.70;;;;;;;;;;10421771;28;20045;-76
2022/04/11 09:37:09;;;;;;;3.90;2.60;;;;;;;;;;10421380;28;20123;-75
2022/04/11 09:42:12;;;;;;;4.57;2.55;;;;;;;;;;10396354;28;20048;-77
2022/04/11 09:47:16;;;;;;;2.95;2.63;;;;;;;;;;10407978;28;20052;-77
2022/04/11 09:52:19;;;;;;;5.07;2.50;;;;;;;;;;10404220;28;20099;-77
2022/04/11 09:57:24;;;;;;;3.40;2.75;;;;;;;;;;10428010;28;20042;-76
2022/04/11 10:02:29;;;;;;;2.92;2.55;;;;;;;;;;10402499;28;20053;-76
2022/04/11 10:07:32;;;;;;;2.83;2.45;;;;;;;;;;10408446;28;20033;-76
2022/04/11 10:12:39;;;;;;;3.50;2.40;;;;;;;;;;10414706;28;20045;-74
2022/04/11 10:17:43;;;;;;;2.60;2.40;;;;;;;;;;10411868;28;20037;-77
2022/04/11 10:22:54;;;;;;;2.72;2.50;;;;;;;;;;10397533;28;20410;-76
2022/04/11 10:28:16;;;;;;;3.20;2.65;;;;;;;;;;10427194;28;20052;-77
2022/04/11 10:33:39;;;;;;;3.25;2.72;;;;;;;;;;10422998;28;20126;-77
2022/04/11 10:38:51;;;;;;;3.33;2.80;;;;;;;;;;10414807;28;20405;-76
2022/04/11 10:44:15;;;;;;;3.47;2.90;;;;;;;;;;10412792;28;20240;-77
2022/04/11 10:49:20;;;;;;;2.90;2.60;;;;;;;;;;10416949;28;20461;-77
2022/04/11 10:54:23;;;;;;;4.05;2.90;;;;;;;;;;10403626;28;20057;-77
2022/04/11 11:00:02;;;;;;;4.30;2.88;;;;;;;;;;10397530;28;20046;-76
2022/04/11 11:05:19;;;;;;;4.80;2.70;;;;;;;;;;10401281;28;20135;-76
2022/04/11 11:10:40;;;;;;;4.30;2.50;;;;;;;;;;10397295;28;20037;-77
2022/04/11 11:15:46;;;;;;;4.80;2.78;;;;;;;;;;10398076;28;20045;-77
2022/04/11 11:20:53;;;;;;;3.05;2.75;;;;;;;;;;10419206;28;20283;-76
2022/04/11 11:26:06;;;;;;;2.78;2.20;;;;;;;;;;10445623;28;20059;-76
2022/04/11 11:31:09;;;;;;;3.30;2.55;;;;;;;;;;10441768;28;20084;-77
2022/04/11 11:36:13;;;;;;;2.80;2.60;;;;;;;;;;10457597;28;20108;-76
2022/04/11 11:41:17;;;;;;;4.63;2.75;;;;;;;;;;10441459;28;20038;-77
2022/04/11 11:46:20;;;;;;;3.22;2.78;;;;;;;;;;10406108;28;20092;-77
2022/04/11 11:51:23;;;;;;;3.33;2.47;;;;;;;;;;10406978;28;20041;-76
2022/04/11 11:56:40;;;;;;;3.45;2.55;;;;;;;;;;10437768;28;20072;-76
2022/04/11 12:04:18;;;;;;;6.13;2.63;;;;;;;;;;10408850;28;20061;-77
2022/04/11 12:07:19;;;;;;;24.52;4.13;;;;;;;;;;10401790;28;20151;-76
2022/04/11 12:12:23;;;;;;;45.05;5.75;;;;;;;;;;10415743;28;20102;-77
2022/04/11 12:17:30;;;;;;;3.90;2.30;;;;;;;;;;10411840;28;20516;-75
2022/04/11 12:22:33;;;;;;;12.73;2.95;;;;;;;;;;10399908;28;20097;-77
2022/04/11 12:27:37;;;;;;;3.92;2.42;;;;;;;;;;10401747;28;20068;-75
2022/04/11 12:32:43;;;;;;;9.70;3.00;;;;;;;;;;10403412;28;20088;-76
2022/04/11 12:37:46;;;;;;;3.60;2.40;;;;;;;;;;10406995;28;20469;-76
2022/04/11 12:42:58;;;;;;;3.40;2.20;;;;;;;;;;10400319;28;20180;-76
2022/04/11 12:48:03;;;;;;;3.03;2.20;;;;;;;;;;10393287;28;20033;-76
2022/04/11 12:53:06;;;;;;;3.28;2.28;;;;;;;;;;10401656;28;20100;-76
2022/04/11 12:58:11;;;;;;;5.10;2.50;;;;;;;;;;10408472;28;20474;-76
2022/04/11 13:03:14;;;;;;;3.95;2.30;;;;;;;;;;10395439;28;20041;-75
2022/04/11 13:08:17;;;;;;;3.03;1.92;;;;;;;;;;10398074;28;20129;-76
2022/04/11 13:13:21;;;;;;;6.07;2.50;;;;;;;;;;10417217;28;20525;-77
2022/04/11 13:18:27;;;;;;;4.03;2.40;;;;;;;;;;10411691;28;20037;-77
2022/04/11 13:23:30;;;;;;;4.13;1.90;;;;;;;;;;10414096;28;20052;-76
2022/04/11 13:28:36;;;;;;;3.47;2.20;;;;;;;;;;10414855;28;20119;-77
2022/04/11 13:33:39;;;;;;;2.97;1.80;;;;;;;;;;10409706;28;20755;-78
2022/04/11 13:38:44;;;;;;;2.67;1.60;;;;;;;;;;10406545;28;20112;-75
2022/04/11 13:43:49;;;;;;;2.65;1.70;;;;;;;;;;10403976;28;20061;-76
2022/04/11 13:48:54;;;;;;;3.92;1.90;;;;;;;;;;10400585;28;20222;-75
2022/04/11 13:53:58;;;;;;;3.63;1.80;;;;;;;;;;10395900;28;20073;-76
2022/04/11 13:59:03;;;;;;;2.47;2.00;;;;;;;;;;10393669;28;20049;-76
2022/04/11 14:04:07;;;;;;;2.70;1.50;;;;;;;;;;10403550;28;20042;-76
2022/04/11 14:09:13;;;;;;;1.60;1.50;;;;;;;;;;10422062;28;20132;-75
2022/04/11 14:14:37;;;;;;;2.65;1.73;;;;;;;;;;10384704;28;20454;-76
2022/04/11 14:19:40;;;;;;;3.55;2.22;;;;;;;;;;10410903;28;20127;-76
2022/04/11 14:24:43;;;;;;;2.15;1.60;;;;;;;;;;10395531;28;20040;-77
2022/04/11 14:29:52;;;;;;;3.80;1.65;;;;;;;;;;10400930;28;20068;-76
2022/04/11 14:34:54;;;;;;;3.88;1.73;;;;;;;;;;10395913;28;20751;-78
2022/04/11 14:39:58;;;;;;;4.57;1.70;;;;;;;;;;10398452;28;20037;-77
2022/04/11 14:45:02;;;;;;;3.78;1.70;;;;;;;;;;10395277;28;20488;-76
2022/04/11 14:50:05;;;;;;;3.33;1.90;;;;;;;;;;10413663;28;20493;-77
2022/04/11 14:55:09;;;;;;;1.88;1.63;;;;;;;;;;10395176;28;20123;-77
2022/04/11 15:00:14;;;;;;;3.28;1.70;;;;;;;;;;10388402;28;20117;-77
2022/04/11 15:05:17;;;;;;;3.25;1.75;;;;;;;;;;10418189;28;20463;-77
2022/04/11 15:10:20;;;;;;;3.00;1.60;;;;;;;;;;10398810;28;20481;-76
2022/04/11 15:15:24;;;;;;;3.13;2.03;;;;;;;;;;10396681;28;20046;-77
2022/04/11 15:20:27;;;;;;;2.25;1.45;;;;;;;;;;10405231;28;20101;-76
2022/04/11 15:25:30;;;;;;;2.50;1.70;;;;;;;;;;10401121;28;20813;-76
2022/04/11 15:30:34;;;;;;;3.47;1.85;;;;;;;;;;10396176;28;20060;-76
2022/04/11 15:35:37;;;;;;;3.00;2.05;;;;;;;;;;10419554;28;20049;-76
2022/04/11 15:40:40;;;;;;;4.53;2.28;;;;;;;;;;10403561;28;20066;-76
2022/04/11 15:45:44;;;;;;;3.95;2.15;;;;;;;;;;10402033;28;20117;-77
2022/04/11 15:50:47;;;;;;;3.38;2.25;;;;;;;;;;10427442;28;20387;-75
2022/04/11 15:56:05;;;;;;;3.10;1.83;;;;;;;;;;10400555;28;20072;-76
2022/04/11 16:01:10;;;;;;;3.15;1.90;;;;;;;;;;10400098;28;20611;-76
2022/04/11 16:06:13;;;;;;;3.67;1.92;;;;;;;;;;10406205;28;20489;-77
2022/04/11 16:11:17;;;;;;;4.83;1.90;;;;;;;;;;10406108;28;20025;-77
2022/04/11 16:16:21;;;;;;;4.43;2.15;;;;;;;;;;10406857;28;20114;-77
2022/04/11 16:21:24;;;;;;;4.28;2.08;;;;;;;;;;10408343;28;20493;-77
2022/04/11 16:26:27;;;;;;;3.08;1.67;;;;;;;;;;10404663;28;20050;-76
2022/04/11 16:31:31;;;;;;;2.95;1.92;;;;;;;;;;10397018;28;20056;-76
2022/04/11 16:36:34;;;;;;;3.95;2.20;;;;;;;;;;10410143;28;20378;-77
2022/04/11 16:41:37;;;;;;;5.45;2.33;;;;;;;;;;10396511;28;20759;-78
2022/04/11 16:46:41;;;;;;;;;;;;;;;;;;10400381;28;20044;-76
2022/04/11 16:51:46;;;;;;;5.13;2.70;;;;;;;;;;10406715;28;19925;-77
2022/04/11 16:56:49;;;;;;;8.05;3.33;;;;;;;;;;10401820;28;20458;-77
2022/04/11 17:01:52;;;;;;;5.10;2.72;;;;;;;;;;10398903;28;20041;-77
2022/04/11 17:06:57;;;;;;;7.10;3.47;;;;;;;;;;10401376;28;20057;-76
2022/04/11 17:12:00;;;;;;;5.78;2.85;;;;;;;;;;10394197;28;20124;-77
2022/04/11 17:22:25;;;;;;;5.28;3.42;;;;;;;;;;10398215;28;20046;-76
2022/04/11 17:27:28;;;;;;;6.15;3.30;;;;;;;;;;10404474;28;21244;-77
2022/04/11 17:32:32;;;;;;;8.63;3.20;;;;;;;;;;10406560;28;21294;-76
2022/04/11 17:37:36;;;;;;;8.98;3.58;;;;;;;;;;10409998;28;20065;-76
2022/04/11 17:42:39;;;;;;;6.70;3.13;;;;;;;;;;10419365;28;20139;-77
2022/04/11 17:47:41;;;;;;;7.45;3.28;;;;;;;;;;10407810;28;20053;-77
2022/04/11 17:52:46;;;;;;;8.77;3.58;;;;;;;;;;10394841;28;20038;-77
2022/04/11 17:57:48;;;;;;;8.73;3.53;;;;;;;;;;10400387;28;20049;-76
2022/04/11 18:02:52;;;;;;;7.70;3.30;;;;;;;;;;10402453;28;20040;-76
2022/04/11 18:07:58;;;;;;;8.53;3.63;;;;;;;;;;10403141;28;20504;-76
2022/04/11 18:13:01;;;;;;;8.27;3.70;;;;;;;;;;10402964;28;20330;-75
2022/04/11 18:18:04;;;;;;;7.63;3.60;;;;;;;;;;10405149;28;20037;-75
2022/04/11 18:23:08;;;;;;;10.20;4.90;;;;;;;;;;10402573;28;20152;-76
2022/04/11 18:33:33;;;;;;;7.32;3.35;;;;;;;;;;10400517;28;20033;-76
2022/04/11 18:38:37;;;;;;;10.15;4.13;;;;;;;;;;10397346;28;20053;-75
2022/04/11 18:43:40;;;;;;;7.78;3.60;;;;;;;;;;10394495;28;20108;-76
2022/04/11 18:48:43;;;;;;;8.32;4.00;;;;;;;;;;10399570;28;20048;-77
2022/04/11 18:53:47;;;;;;;7.45;3.22;;;;;;;;;;10401226;28;20055;-75
2022/04/11 18:58:50;;;;;;;9.60;3.95;;;;;;;;;;10407743;28;20037;-75
2022/04/11 19:03:53;;;;;;;8.18;4.00;;;;;;;;;;10395961;28;20052;-77
2022/04/11 19:08:58;;;;;;;9.13;3.90;;;;;;;;;;10409947;28;20602;-76
2022/04/11 19:14:01;;;;;;;9.98;4.07;;;;;;;;;;10401806;28;20432;-77
2022/04/11 19:19:06;;;;;;;8.57;4.28;;;;;;;;;;10405201;28;20494;-76
2022/04/11 19:24:11;;;;;;;9.68;4.07;;;;;;;;;;10410676;28;20068;-76
2022/04/11 19:29:15;;;;;;;11.82;4.40;;;;;;;;;;10399273;28;20134;-76
2022/04/11 19:34:18;;;;;;;11.37;5.30;;;;;;;;;;10420702;28;20052;-75
2022/04/11 19:39:23;;;;;;;12.15;4.93;;;;;;;;;;10398552;28;20033;-76
2022/04/11 19:44:29;;;;;;;11.05;4.55;;;;;;;;;;10401834;28;20049;-76
2022/04/11 19:49:51;;;;;;;11.63;4.15;;;;;;;;;;10408088;28;20039;-77
2022/04/11 19:54:56;;;;;;;9.38;3.75;;;;;;;;;;10410805;28;20429;-79
2022/04/11 19:59:59;;;;;;;10.20;4.22;;;;;;;;;;10406312;28;20102;-77
2022/04/11 20:05:02;;;;;;;7.57;4.20;;;;;;;;;;10407333;28;20141;-77
2022/04/11 20:10:09;;;;;;;10.85;3.90;;;;;;;;;;10407567;28;20114;-76
2022/04/11 20:15:13;;;;;;;8.00;3.47;;;;;;;;;;10422445;28;20049;-76
2022/04/11 20:20:16;;;;;;;6.90;3.13;;;;;;;;;;10405701;28;20025;-75
2022/04/11 20:25:21;;;;;;;7.57;3.53;;;;;;;;;;10410176;28;20064;-75
2022/04/11 20:30:29;;;;;;;5.32;2.63;;;;;;;;;;10419721;28;20589;-75
2022/04/11 20:35:32;;;;;;;7.82;3.60;;;;;;;;;;10412818;28;20489;-75
2022/04/11 20:40:36;;;;;;;8.43;3.33;;;;;;;;;;10402434;28;20057;-76
2022/04/11 20:45:39;;;;;;;7.30;3.55;;;;;;;;;;10403790;28;20068;-75
2022/04/11 20:50:43;;;;;;;6.38;3.03;;;;;;;;;;10409938;28;20033;-76
2022/04/11 20:55:48;;;;;;;7.03;3.20;;;;;;;;;;10404887;28;20096;-75
2022/04/11 21:00:51;;;;;;;11.23;3.72;;;;;;;;;;10404398;28;20361;-74
2022/04/11 21:05:55;;;;;;;6.53;3.15;;;;;;;;;;10400414;28;20092;-75
2022/04/11 21:10:59;;;;;;;6.72;3.40;;;;;;;;;;10396590;28;20116;-74
2022/04/11 21:16:03;;;;;;;7.53;3.38;;;;;;;;;;10406207;28;20044;-75
2022/04/11 21:21:06;;;;;;;9.97;3.27;;;;;;;;;;10395680;28;20036;-75
2022/04/11 21:26:13;;;;;;;7.70;3.53;;;;;;;;;;10402692;28;20469;-75
2022/04/11 21:31:15;;;;;;;7.00;2.28;;;;;;;;;;10398126;28;20119;-75
2022/04/11 21:36:19;;;;;;;9.60;5.03;;;;;;;;;;10417770;28;20037;-74
2022/04/11 21:41:24;;;;;;;9.43;4.03;;;;;;;;;;10407288;28;20638;-74
2022/04/11 21:46:27;;;;;;;7.65;3.65;;;;;;;;;;10406309;28;20057;-74
2022/04/11 21:51:30;;;;;;;8.40;4.10;;;;;;;;;;10407028;28;20129;-75
2022/04/11 21:56:36;;;;;;;9.45;3.75;;;;;;;;;;10410211;28;20124;-75
2022/04/11 22:01:41;;;;;;;9.52;3.65;;;;;;;;;;10410111;28;20101;-74
2022/04/11 22:06:45;;;;;;;9.60;3.78;;;;;;;;;;10400395;28;20231;-74
2022/04/11 22:11:50;;;;;;;6.68;3.03;;;;;;;;;;10409684;28;20038;-74
2022/04/11 22:16:53;;;;;;;7.53;3.92;;;;;;;;;;10402399;28;20436;-74
2022/04/11 22:21:56;;;;;;;9.15;3.72;;;;;;;;;;10396146;28;20792;-74
2022/04/11 22:27:01;;;;;;;8.32;3.95;;;;;;;;;;10399893;28;20063;-74
2022/04/11 22:32:05;;;;;;;9.18;4.00;;;;;;;;;;10401080;28;20040;-74
2022/04/11 22:37:09;;;;;;;8.18;3.80;;;;;;;;;;10405564;28;20548;-75
2022/04/11 22:42:13;;;;;;;11.55;4.80;;;;;;;;;;10405387;28;20040;-75
2022/04/11 22:47:17;;;;;;;9.55;3.88;;;;;;;;;;10404711;28;20086;-77
2022/04/11 22:52:20;;;;;;;9.35;4.22;;;;;;;;;;10401449;28;20072;-76
2022/04/11 22:57:25;;;;;;;7.80;3.78;;;;;;;;;;10393457;28;20042;-74
2022/04/11 23:02:28;;;;;;;9.85;3.60;;;;;;;;;;10399396;28;20050;-74
2022/04/11 23:07:31;;;;;;;10.27;5.55;;;;;;;;;;10399438;28;20049;-73
2022/04/11 23:12:36;;;;;;;11.57;3.58;;;;;;;;;;10392069;28;20038;-74
2022/04/11 23:17:39;;;;;;;9.38;4.18;;;;;;;;;;10397970;28;20049;-74
2022/04/11 23:22:43;;;;;;;9.63;3.83;;;;;;;;;;10406693;28;20052;-76
2022/04/11 23:27:48;;;;;;;10.45;3.97;;;;;;;;;;10411771;28;20390;-75
2022/04/11 23:32:50;;;;;;;;;;;;;;;;;;10404828;28;20037;-74
2022/04/11 23:37:53;;;;;;;10.68;3.92;;;;;;;;;;10403422;28;19943;-76
2022/04/11 23:42:57;;;;;;;10.25;3.67;;;;;;;;;;10415705;28;20044;-74
2022/04/11 23:48:00;;;;;;;;;;;;;;;;;;10411530;28;20049;-77
2022/04/11 23:53:04;;;;;;;8.85;3.70;;;;;;;;;;10401673;28;19921;-75
2022/04/11 23:58:08;;;;;;;9.50;4.47;;;;;;;;;;10410073;28;20119;-74
